sensor_id;sensor_type;location;lat;lon;timestamp;pressure;altitude;pressure_sealevel;temperature;humidity
76815;BME280;65768;49.906;19.384;2022-12-07T00:01:42;97835.61;;;0.80;92.46
76815;BME280;65768;49.906;19.384;2022-12-07T00:04:12;97838.16;;;0.80;92.44
76815;BME280;65768;49.906;19.384;2022-12-07T00:06:43;97830.96;;;0.80;92.52
76815;BME280;65768;49.906;19.384;2022-12-07T00:09:14;97833.92;;;0.82;92.56
76815;BME280;65768;49.906;19.384;2022-12-07T00:11:43;97835.31;;;0.82;92.43
76815;BME280;65768;49.906;19.384;2022-12-07T00:14:14;97834.48;;;0.83;92.58
76815;BME280;65768;49.906;19.384;2022-12-07T00:16:43;97830.89;;;0.83;92.39
76815;BME280;65768;49.906;19.384;2022-12-07T00:19:13;97831.43;;;0.84;92.52
76815;BME280;65768;49.906;19.384;2022-12-07T00:21:41;97826.48;;;0.85;92.42
76815;BME280;65768;49.906;19.384;2022-12-07T00:24:10;97826.02;;;0.86;92.42
76815;BME280;65768;49.906;19.384;2022-12-07T00:26:40;97826.73;;;0.87;92.47
76815;BME280;65768;49.906;19.384;2022-12-07T00:29:21;97825.87;;;0.87;92.56
76815;BME280;65768;49.906;19.384;2022-12-07T00:31:49;97828.98;;;0.88;92.56
76815;BME280;65768;49.906;19.384;2022-12-07T00:34:19;97825.54;;;0.88;92.61
76815;BME280;65768;49.906;19.384;2022-12-07T00:36:48;97825.60;;;0.89;92.78
76815;BME280;65768;49.906;19.384;2022-12-07T00:39:16;97826.48;;;0.90;92.63
76815;BME280;65768;49.906;19.384;2022-12-07T00:41:44;97823.11;;;0.92;92.58
76815;BME280;65768;49.906;19.384;2022-12-07T00:44:12;97827.09;;;0.93;92.67
76815;BME280;65768;49.906;19.384;2022-12-07T00:46:40;97821.98;;;0.95;92.58
76815;BME280;65768;49.906;19.384;2022-12-07T00:49:08;97818.23;;;0.95;92.73
76815;BME280;65768;49.906;19.384;2022-12-07T00:51:39;97819.42;;;0.95;92.69
76815;BME280;65768;49.906;19.384;2022-12-07T00:54:07;97818.63;;;0.96;92.73
76815;BME280;65768;49.906;19.384;2022-12-07T00:56:35;97817.15;;;0.99;92.65
76815;BME280;65768;49.906;19.384;2022-12-07T00:59:03;97816.04;;;1.01;92.70
76815;BME280;65768;49.906;19.384;2022-12-07T01:01:34;97817.76;;;1.02;92.58
76815;BME280;65768;49.906;19.384;2022-12-07T01:04:03;97810.05;;;1.02;92.77
76815;BME280;65768;49.906;19.384;2022-12-07T01:06:31;97813.14;;;1.03;92.50
76815;BME280;65768;49.906;19.384;2022-12-07T01:08:59;97809.01;;;1.02;92.68
76815;BME280;65768;49.906;19.384;2022-12-07T01:11:29;97802.50;;;1.03;92.69
76815;BME280;65768;49.906;19.384;2022-12-07T01:13:59;97804.11;;;1.04;92.59
76815;BME280;65768;49.906;19.384;2022-12-07T01:16:29;97801.43;;;1.07;92.43
76815;BME280;65768;49.906;19.384;2022-12-07T01:18:58;97796.85;;;1.08;92.54
76815;BME280;65768;49.906;19.384;2022-12-07T01:21:29;97792.63;;;1.10;92.43
76815;BME280;65768;49.906;19.384;2022-12-07T01:23:57;97793.33;;;1.11;92.50
76815;BME280;65768;49.906;19.384;2022-12-07T01:26:26;97793.31;;;1.10;92.60
76815;BME280;65768;49.906;19.384;2022-12-07T01:28:54;97788.30;;;1.10;92.58
76815;BME280;65768;49.906;19.384;2022-12-07T01:31:24;97787.50;;;1.11;92.53
76815;BME280;65768;49.906;19.384;2022-12-07T01:33:57;97783.98;;;1.14;92.50
76815;BME280;65768;49.906;19.384;2022-12-07T01:36:28;97786.26;;;1.16;92.49
76815;BME280;65768;49.906;19.384;2022-12-07T01:38:59;97784.08;;;1.18;92.46
76815;BME280;65768;49.906;19.384;2022-12-07T01:41:31;97784.48;;;1.20;92.49
76815;BME280;65768;49.906;19.384;2022-12-07T01:44:20;97785.83;;;1.19;92.57
76815;BME280;65768;49.906;19.384;2022-12-07T01:46:54;97782.87;;;1.17;92.58
76815;BME280;65768;49.906;19.384;2022-12-07T01:49:47;97783.74;;;1.18;92.43
76815;BME280;65768;49.906;19.384;2022-12-07T01:52:21;97783.45;;;1.20;92.46
76815;BME280;65768;49.906;19.384;2022-12-07T01:54:53;97787.96;;;1.21;92.61
76815;BME280;65768;49.906;19.384;2022-12-07T01:57:22;97786.30;;;1.23;92.43
76815;BME280;65768;49.906;19.384;2022-12-07T01:59:51;97782.41;;;1.25;92.55
76815;BME280;65768;49.906;19.384;2022-12-07T02:02:30;97781.54;;;1.24;92.48
76815;BME280;65768;49.906;19.384;2022-12-07T02:05:02;97783.79;;;1.25;92.44
76815;BME280;65768;49.906;19.384;2022-12-07T02:07:31;97779.51;;;1.26;92.42
76815;BME280;65768;49.906;19.384;2022-12-07T02:10:19;97781.02;;;1.25;92.34
76815;BME280;65768;49.906;19.384;2022-12-07T02:12:55;97781.04;;;1.25;92.31
76815;BME280;65768;49.906;19.384;2022-12-07T02:15:32;97778.79;;;1.24;92.45
76815;BME280;65768;49.906;19.384;2022-12-07T02:18:12;97773.80;;;1.24;92.49
76815;BME280;65768;49.906;19.384;2022-12-07T02:21:12;97775.42;;;1.27;92.40
76815;BME280;65768;49.906;19.384;2022-12-07T02:29:21;97779.29;;;1.48;91.79
76815;BME280;65768;49.906;19.384;2022-12-07T02:31:58;97779.36;;;1.50;91.75
76815;BME280;65768;49.906;19.384;2022-12-07T02:34:52;97782.40;;;1.54;91.48
76815;BME280;65768;49.906;19.384;2022-12-07T02:37:34;97773.27;;;1.59;91.35
76815;BME280;65768;49.906;19.384;2022-12-07T02:40:18;97773.95;;;1.65;91.20
76815;BME280;65768;49.906;19.384;2022-12-07T02:42:52;97771.23;;;1.67;91.19
76815;BME280;65768;49.906;19.384;2022-12-07T02:45:25;97776.89;;;1.66;91.23
76815;BME280;65768;49.906;19.384;2022-12-07T02:47:58;97771.13;;;1.69;91.12
76815;BME280;65768;49.906;19.384;2022-12-07T02:50:27;97773.88;;;1.69;91.16
76815;BME280;65768;49.906;19.384;2022-12-07T02:52:55;97774.23;;;1.70;91.22
76815;BME280;65768;49.906;19.384;2022-12-07T02:55:30;97775.33;;;1.71;91.38
76815;BME280;65768;49.906;19.384;2022-12-07T03:03:58;97773.09;;;1.77;90.64
76815;BME280;65768;49.906;19.384;2022-12-07T03:06:32;97769.23;;;1.81;90.69
76815;BME280;65768;49.906;19.384;2022-12-07T03:09:25;97768.73;;;1.82;90.77
76815;BME280;65768;49.906;19.384;2022-12-07T03:12:16;97768.73;;;1.81;90.70
76815;BME280;65768;49.906;19.384;2022-12-07T03:14:56;97771.48;;;1.81;90.77
76815;BME280;65768;49.906;19.384;2022-12-07T03:17:28;97765.47;;;1.82;90.58
76815;BME280;65768;49.906;19.384;2022-12-07T03:20:01;97769.33;;;1.84;90.03
76815;BME280;65768;49.906;19.384;2022-12-07T03:22:34;97765.88;;;1.83;90.41
76815;BME280;65768;49.906;19.384;2022-12-07T03:25:06;97761.52;;;1.81;90.35
76815;BME280;65768;49.906;19.384;2022-12-07T03:27:41;97763.08;;;1.82;90.43
76815;BME280;65768;49.906;19.384;2022-12-07T03:30:19;97761.49;;;1.80;90.45
76815;BME280;65768;49.906;19.384;2022-12-07T03:32:54;97754.42;;;1.80;90.37
76815;BME280;65768;49.906;19.384;2022-12-07T03:35:30;97757.74;;;1.81;90.39
76815;BME280;65768;49.906;19.384;2022-12-07T03:38:13;97758.41;;;1.81;90.19
76815;BME280;65768;49.906;19.384;2022-12-07T03:43:29;97756.09;;;1.83;89.88
76815;BME280;65768;49.906;19.384;2022-12-07T03:49:27;97747.19;;;1.85;89.11
76815;BME280;65768;49.906;19.384;2022-12-07T03:54:39;97746.30;;;1.85;89.30
76815;BME280;65768;49.906;19.384;2022-12-07T03:57:10;97746.13;;;1.84;89.09
76815;BME280;65768;49.906;19.384;2022-12-07T03:59:39;97746.30;;;1.84;88.86
76815;BME280;65768;49.906;19.384;2022-12-07T04:02:11;97749.91;;;1.84;88.79
76815;BME280;65768;49.906;19.384;2022-12-07T04:04:41;97747.83;;;1.83;88.91
76815;BME280;65768;49.906;19.384;2022-12-07T04:07:10;97745.73;;;1.82;89.06
76815;BME280;65768;49.906;19.384;2022-12-07T04:09:38;97743.40;;;1.79;89.19
76815;BME280;65768;49.906;19.384;2022-12-07T04:12:06;97739.73;;;1.76;89.28
76815;BME280;65768;49.906;19.384;2022-12-07T04:14:34;97736.66;;;1.77;88.97
76815;BME280;65768;49.906;19.384;2022-12-07T04:17:02;97740.93;;;1.76;88.94
76815;BME280;65768;49.906;19.384;2022-12-07T04:19:32;97741.11;;;1.76;88.68
76815;BME280;65768;49.906;19.384;2022-12-07T04:22:02;97738.20;;;1.77;88.83
76815;BME280;65768;49.906;19.384;2022-12-07T04:24:31;97744.90;;;1.77;88.65
76815;BME280;65768;49.906;19.384;2022-12-07T04:26:59;97742.27;;;1.76;88.89
76815;BME280;65768;49.906;19.384;2022-12-07T04:29:27;97745.70;;;1.75;89.07
76815;BME280;65768;49.906;19.384;2022-12-07T04:31:54;97743.96;;;1.74;88.95
76815;BME280;65768;49.906;19.384;2022-12-07T04:34:23;97747.21;;;1.74;88.91
76815;BME280;65768;49.906;19.384;2022-12-07T04:36:50;97747.37;;;1.73;89.05
76815;BME280;65768;49.906;19.384;2022-12-07T04:39:20;97747.52;;;1.72;88.98
76815;BME280;65768;49.906;19.384;2022-12-07T04:41:48;97746.47;;;1.71;88.84
76815;BME280;65768;49.906;19.384;2022-12-07T04:44:17;97749.70;;;1.70;89.32
76815;BME280;65768;49.906;19.384;2022-12-07T04:46:46;97752.23;;;1.69;89.02
76815;BME280;65768;49.906;19.384;2022-12-07T04:49:15;97754.61;;;1.68;88.97
76815;BME280;65768;49.906;19.384;2022-12-07T04:51:44;97752.13;;;1.65;89.37
76815;BME280;65768;49.906;19.384;2022-12-07T04:54:13;97751.41;;;1.64;89.37
76815;BME280;65768;49.906;19.384;2022-12-07T04:56:43;97749.67;;;1.63;89.80
76815;BME280;65768;49.906;19.384;2022-12-07T04:59:12;97763.86;;;1.60;89.81
76815;BME280;65768;49.906;19.384;2022-12-07T05:01:41;97753.14;;;1.58;89.79
76815;BME280;65768;49.906;19.384;2022-12-07T05:04:09;97753.14;;;1.58;89.77
76815;BME280;65768;49.906;19.384;2022-12-07T05:06:37;97754.35;;;1.58;89.69
76815;BME280;65768;49.906;19.384;2022-12-07T05:09:05;97756.40;;;1.58;89.96
76815;BME280;65768;49.906;19.384;2022-12-07T05:11:33;97759.96;;;1.56;90.07
76815;BME280;65768;49.906;19.384;2022-12-07T05:14:18;97760.30;;;1.55;89.91
76815;BME280;65768;49.906;19.384;2022-12-07T05:16:49;97753.94;;;1.56;90.00
76815;BME280;65768;49.906;19.384;2022-12-07T05:19:18;97756.44;;;1.53;90.17
76815;BME280;65768;49.906;19.384;2022-12-07T05:21:47;97757.44;;;1.52;90.28
76815;BME280;65768;49.906;19.384;2022-12-07T05:24:16;97757.38;;;1.50;90.35
76815;BME280;65768;49.906;19.384;2022-12-07T05:26:45;97758.19;;;1.48;90.33
76815;BME280;65768;49.906;19.384;2022-12-07T05:29:14;97759.51;;;1.46;90.53
76815;BME280;65768;49.906;19.384;2022-12-07T05:31:43;97763.05;;;1.45;90.65
76815;BME280;65768;49.906;19.384;2022-12-07T05:34:12;97757.67;;;1.42;90.45
76815;BME280;65768;49.906;19.384;2022-12-07T05:36:40;97763.11;;;1.41;90.64
76815;BME280;65768;49.906;19.384;2022-12-07T05:39:08;97767.02;;;1.38;90.73
76815;BME280;65768;49.906;19.384;2022-12-07T05:41:36;97764.23;;;1.37;90.84
76815;BME280;65768;49.906;19.384;2022-12-07T05:44:22;97767.48;;;1.36;90.83
76815;BME280;65768;49.906;19.384;2022-12-07T05:46:50;97764.33;;;1.35;90.93
76815;BME280;65768;49.906;19.384;2022-12-07T05:49:18;97769.28;;;1.34;90.80
76815;BME280;65768;49.906;19.384;2022-12-07T05:51:46;97765.65;;;1.33;90.86
76815;BME280;65768;49.906;19.384;2022-12-07T05:54:14;97763.67;;;1.30;90.83
76815;BME280;65768;49.906;19.384;2022-12-07T05:56:42;97764.23;;;1.32;90.89
76815;BME280;65768;49.906;19.384;2022-12-07T05:59:09;97763.48;;;1.29;91.05
76815;BME280;65768;49.906;19.384;2022-12-07T06:01:55;97769.15;;;1.29;90.87
76815;BME280;65768;49.906;19.384;2022-12-07T06:04:26;97772.24;;;1.29;90.93
76815;BME280;65768;49.906;19.384;2022-12-07T06:06:54;97771.33;;;1.28;91.02
76815;BME280;65768;49.906;19.384;2022-12-07T06:09:23;97775.79;;;1.28;91.01
76815;BME280;65768;49.906;19.384;2022-12-07T06:11:52;97776.44;;;1.26;91.12
76815;BME280;65768;49.906;19.384;2022-12-07T06:14:39;97774.21;;;1.26;91.31
76815;BME280;65768;49.906;19.384;2022-12-07T06:17:07;97781.17;;;1.23;91.34
76815;BME280;65768;49.906;19.384;2022-12-07T06:19:35;97768.32;;;1.19;91.74
76815;BME280;65768;49.906;19.384;2022-12-07T06:22:06;97776.98;;;1.22;91.65
76815;BME280;65768;49.906;19.384;2022-12-07T06:24:33;97777.92;;;1.18;91.44
76815;BME280;65768;49.906;19.384;2022-12-07T06:27:01;97778.60;;;1.18;91.50
76815;BME280;65768;49.906;19.384;2022-12-07T06:29:30;97779.27;;;1.17;91.55
76815;BME280;65768;49.906;19.384;2022-12-07T06:31:58;97780.98;;;1.17;91.61
76815;BME280;65768;49.906;19.384;2022-12-07T06:34:26;97779.52;;;1.14;92.18
76815;BME280;65768;49.906;19.384;2022-12-07T06:36:54;97783.70;;;1.11;92.15
76815;BME280;65768;49.906;19.384;2022-12-07T06:39:26;97784.10;;;1.07;92.06
76815;BME280;65768;49.906;19.384;2022-12-07T06:41:54;97786.64;;;1.06;92.07
76815;BME280;65768;49.906;19.384;2022-12-07T06:44:23;97787.85;;;1.06;92.06
76815;BME280;65768;49.906;19.384;2022-12-07T06:46:51;97792.56;;;1.03;92.07
76815;BME280;65768;49.906;19.384;2022-12-07T06:49:20;97801.08;;;1.01;91.95
76815;BME280;65768;49.906;19.384;2022-12-07T06:51:48;97801.40;;;0.94;91.86
76815;BME280;65768;49.906;19.384;2022-12-07T06:54:16;97803.75;;;0.93;91.82
76815;BME280;65768;49.906;19.384;2022-12-07T06:56:44;97800.19;;;0.88;91.59
76815;BME280;65768;49.906;19.384;2022-12-07T06:59:12;97806.86;;;0.88;91.89
76815;BME280;65768;49.906;19.384;2022-12-07T07:01:40;97806.17;;;0.83;91.89
76815;BME280;65768;49.906;19.384;2022-12-07T07:04:07;97806.77;;;0.80;91.98
76815;BME280;65768;49.906;19.384;2022-12-07T07:06:35;97807.91;;;0.78;91.84
76815;BME280;65768;49.906;19.384;2022-12-07T07:09:03;97807.21;;;0.78;92.04
76815;BME280;65768;49.906;19.384;2022-12-07T07:11:31;97813.27;;;0.79;91.93
76815;BME280;65768;49.906;19.384;2022-12-07T07:13:59;97809.23;;;0.82;92.01
76815;BME280;65768;49.906;19.384;2022-12-07T07:16:30;97810.54;;;0.80;92.19
76815;BME280;65768;49.906;19.384;2022-12-07T07:18:58;97812.41;;;0.74;92.22
76815;BME280;65768;49.906;19.384;2022-12-07T07:21:26;97814.35;;;0.70;92.09
76815;BME280;65768;49.906;19.384;2022-12-07T07:23:54;97815.17;;;0.64;92.04
76815;BME280;65768;49.906;19.384;2022-12-07T07:26:22;97818.66;;;0.65;92.05
76815;BME280;65768;49.906;19.384;2022-12-07T07:28:50;97812.52;;;0.62;92.27
76815;BME280;65768;49.906;19.384;2022-12-07T07:31:18;97812.67;;;0.56;92.17
76815;BME280;65768;49.906;19.384;2022-12-07T07:33:46;97814.75;;;0.56;92.46
76815;BME280;65768;49.906;19.384;2022-12-07T07:36:14;97822.80;;;0.56;92.46
76815;BME280;65768;49.906;19.384;2022-12-07T07:38:42;97822.59;;;0.50;92.31
76815;BME280;65768;49.906;19.384;2022-12-07T07:41:10;97823.98;;;0.45;92.43
76815;BME280;65768;49.906;19.384;2022-12-07T07:43:38;97820.59;;;0.46;92.51
76815;BME280;65768;49.906;19.384;2022-12-07T07:46:05;97823.98;;;0.45;92.54
76815;BME280;65768;49.906;19.384;2022-12-07T07:48:33;97823.91;;;0.48;92.32
76815;BME280;65768;49.906;19.384;2022-12-07T07:51:05;97819.83;;;0.49;92.63
76815;BME280;65768;49.906;19.384;2022-12-07T07:53:34;97822.09;;;0.50;92.84
76815;BME280;65768;49.906;19.384;2022-12-07T07:56:02;97822.90;;;0.49;92.98
76815;BME280;65768;49.906;19.384;2022-12-07T07:58:30;97833.13;;;0.47;92.83
76815;BME280;65768;49.906;19.384;2022-12-07T08:01:08;97831.35;;;0.35;92.84
76815;BME280;65768;49.906;19.384;2022-12-07T08:03:36;97831.88;;;0.35;92.74
76815;BME280;65768;49.906;19.384;2022-12-07T08:06:04;97832.34;;;0.39;92.71
76815;BME280;65768;49.906;19.384;2022-12-07T08:08:32;97831.70;;;0.45;92.73
76815;BME280;65768;49.906;19.384;2022-12-07T08:11:00;97836.16;;;0.51;92.69
76815;BME280;65768;49.906;19.384;2022-12-07T08:13:30;97838.95;;;0.57;92.48
76815;BME280;65768;49.906;19.384;2022-12-07T08:15:58;97837.13;;;0.64;92.52
76815;BME280;65768;49.906;19.384;2022-12-07T08:18:30;97837.23;;;0.73;92.34
76815;BME280;65768;49.906;19.384;2022-12-07T08:20:59;97840.39;;;0.80;92.23
76815;BME280;65768;49.906;19.384;2022-12-07T08:23:31;97840.08;;;0.86;92.14
76815;BME280;65768;49.906;19.384;2022-12-07T08:26:11;97836.14;;;0.92;92.14
76815;BME280;65768;49.906;19.384;2022-12-07T08:28:39;97840.48;;;0.99;91.92
76815;BME280;65768;49.906;19.384;2022-12-07T08:31:14;97843.50;;;1.07;91.96
76815;BME280;65768;49.906;19.384;2022-12-07T08:33:47;97843.85;;;1.13;91.81
76815;BME280;65768;49.906;19.384;2022-12-07T08:36:16;97848.66;;;1.19;91.59
76815;BME280;65768;49.906;19.384;2022-12-07T08:38:44;97847.80;;;1.24;91.68
76815;BME280;65768;49.906;19.384;2022-12-07T08:41:12;97855.21;;;1.20;91.62
76815;BME280;65768;49.906;19.384;2022-12-07T08:43:40;97850.87;;;1.24;91.63
76815;BME280;65768;49.906;19.384;2022-12-07T08:46:15;97848.66;;;1.25;91.63
76815;BME280;65768;49.906;19.384;2022-12-07T08:48:48;97847.33;;;1.26;91.68
76815;BME280;65768;49.906;19.384;2022-12-07T08:51:17;97851.41;;;1.30;91.57
76815;BME280;65768;49.906;19.384;2022-12-07T08:53:45;97849.90;;;1.31;91.43
76815;BME280;65768;49.906;19.384;2022-12-07T08:56:14;97853.20;;;1.32;91.46
76815;BME280;65768;49.906;19.384;2022-12-07T08:58:42;97851.55;;;1.30;91.10
76815;BME280;65768;49.906;19.384;2022-12-07T09:01:11;97848.74;;;1.39;91.27
76815;BME280;65768;49.906;19.384;2022-12-07T09:03:39;97853.23;;;1.39;91.11
76815;BME280;65768;49.906;19.384;2022-12-07T09:06:07;97847.80;;;1.47;91.37
76815;BME280;65768;49.906;19.384;2022-12-07T09:08:41;97845.41;;;1.42;90.87
76815;BME280;65768;49.906;19.384;2022-12-07T09:11:11;97841.74;;;1.40;90.97
76815;BME280;65768;49.906;19.384;2022-12-07T09:13:39;97841.02;;;1.38;90.93
76815;BME280;65768;49.906;19.384;2022-12-07T09:16:07;97839.02;;;1.41;91.22
76815;BME280;65768;49.906;19.384;2022-12-07T09:18:35;97835.54;;;1.33;90.88
76815;BME280;65768;49.906;19.384;2022-12-07T09:21:02;97835.54;;;1.33;90.57
76815;BME280;65768;49.906;19.384;2022-12-07T09:23:30;97836.21;;;1.33;90.84
76815;BME280;65768;49.906;19.384;2022-12-07T09:26:03;97838.40;;;1.31;90.87
76815;BME280;65768;49.906;19.384;2022-12-07T09:28:32;97838.83;;;1.29;90.61
76815;BME280;65768;49.906;19.384;2022-12-07T09:31:00;97837.05;;;1.32;90.63
76815;BME280;65768;49.906;19.384;2022-12-07T09:33:30;97833.77;;;1.31;90.46
76815;BME280;65768;49.906;19.384;2022-12-07T09:35:58;97833.67;;;1.34;90.31
76815;BME280;65768;49.906;19.384;2022-12-07T09:38:26;97831.98;;;1.35;89.99
76815;BME280;65768;49.906;19.384;2022-12-07T09:40:54;97827.09;;;1.38;90.26
76815;BME280;65768;49.906;19.384;2022-12-07T09:43:24;97830.58;;;1.40;90.19
76815;BME280;65768;49.906;19.384;2022-12-07T09:45:54;97835.21;;;1.45;90.15
76815;BME280;65768;49.906;19.384;2022-12-07T09:48:30;97829.63;;;1.42;89.95
76815;BME280;65768;49.906;19.384;2022-12-07T09:51:00;97826.65;;;1.46;90.08
76815;BME280;65768;49.906;19.384;2022-12-07T09:53:37;97823.20;;;1.46;89.84
76815;BME280;65768;49.906;19.384;2022-12-07T09:56:06;97823.02;;;1.51;89.95
76815;BME280;65768;49.906;19.384;2022-12-07T09:58:34;97817.41;;;1.53;89.23
76815;BME280;65768;49.906;19.384;2022-12-07T10:01:14;97819.48;;;1.54;89.34
76815;BME280;65768;49.906;19.384;2022-12-07T10:06:54;97819.85;;;1.60;88.83
76815;BME280;65768;49.906;19.384;2022-12-07T10:09:22;97818.54;;;1.69;89.20
76815;BME280;65768;49.906;19.384;2022-12-07T10:12:08;97815.19;;;1.72;88.72
76815;BME280;65768;49.906;19.384;2022-12-07T10:14:52;97809.70;;;1.77;88.54
76815;BME280;65768;49.906;19.384;2022-12-07T10:20:21;97801.83;;;1.85;87.50
76815;BME280;65768;49.906;19.384;2022-12-07T10:23:04;97797.68;;;1.91;86.98
76815;BME280;65768;49.906;19.384;2022-12-07T10:25:35;97797.33;;;2.03;87.44
76815;BME280;65768;49.906;19.384;2022-12-07T10:30:57;97788.02;;;2.15;86.54
76815;BME280;65768;49.906;19.384;2022-12-07T10:33:35;97785.39;;;2.20;86.78
76815;BME280;65768;49.906;19.384;2022-12-07T10:36:36;97781.89;;;2.17;86.53
76815;BME280;65768;49.906;19.384;2022-12-07T10:39:18;97776.02;;;2.23;86.08
76815;BME280;65768;49.906;19.384;2022-12-07T10:42:00;97774.58;;;2.20;86.26
76815;BME280;65768;49.906;19.384;2022-12-07T10:44:30;97773.67;;;2.19;85.52
76815;BME280;65768;49.906;19.384;2022-12-07T11:32:00;97734.52;;;2.77;81.32
76815;BME280;65768;49.906;19.384;2022-12-07T11:34:48;97740.45;;;2.73;80.63
76815;BME280;65768;49.906;19.384;2022-12-07T11:37:31;97739.92;;;2.73;79.42
76815;BME280;65768;49.906;19.384;2022-12-07T11:42:45;97729.77;;;2.88;79.63
76815;BME280;65768;49.906;19.384;2022-12-07T11:45:17;97733.05;;;2.88;79.35
76815;BME280;65768;49.906;19.384;2022-12-07T11:48:01;97741.77;;;2.85;79.52
76815;BME280;65768;49.906;19.384;2022-12-07T11:50:39;97735.41;;;2.86;79.86
76815;BME280;65768;49.906;19.384;2022-12-07T12:03:48;97718.34;;;2.62;78.78
76815;BME280;65768;49.906;19.384;2022-12-07T12:06:18;97719.60;;;2.58;78.82
76815;BME280;65768;49.906;19.384;2022-12-07T12:08:52;97720.48;;;2.50;78.42
76815;BME280;65768;49.906;19.384;2022-12-07T12:11:45;97717.45;;;2.46;78.41
76815;BME280;65768;49.906;19.384;2022-12-07T12:17:28;97721.89;;;2.31;78.14
76815;BME280;65768;49.906;19.384;2022-12-07T12:25:06;97722.94;;;2.31;79.59
76815;BME280;65768;49.906;19.384;2022-12-07T12:27:36;97720.48;;;2.30;79.10
76815;BME280;65768;49.906;19.384;2022-12-07T12:30:23;97718.06;;;2.36;79.87
76815;BME280;65768;49.906;19.384;2022-12-07T12:32:52;97718.50;;;2.39;79.31
76815;BME280;65768;49.906;19.384;2022-12-07T12:35:31;97712.14;;;2.47;79.50
76815;BME280;65768;49.906;19.384;2022-12-07T12:38:30;97718.48;;;2.53;79.39
76815;BME280;65768;49.906;19.384;2022-12-07T12:40:59;97717.80;;;2.62;79.15
76815;BME280;65768;49.906;19.384;2022-12-07T12:43:46;97714.42;;;2.71;79.75
76815;BME280;65768;49.906;19.384;2022-12-07T12:51:46;97706.98;;;2.85;76.23
76815;BME280;65768;49.906;19.384;2022-12-07T12:57:20;97711.48;;;2.94;75.02
76815;BME280;65768;49.906;19.384;2022-12-07T13:02:23;97715.38;;;2.91;74.57
76815;BME280;65768;49.906;19.384;2022-12-07T13:04:58;97714.58;;;2.86;74.63
76815;BME280;65768;49.906;19.384;2022-12-07T13:28:52;97705.59;;;2.53;74.11
76815;BME280;65768;49.906;19.384;2022-12-07T13:31:34;97710.69;;;2.51;74.46
76815;BME280;65768;49.906;19.384;2022-12-07T13:34:04;97710.23;;;2.47;74.32
76815;BME280;65768;49.906;19.384;2022-12-07T13:36:37;97710.89;;;2.45;74.43
76815;BME280;65768;49.906;19.384;2022-12-07T13:41:43;97712.66;;;2.41;74.16
76815;BME280;65768;49.906;19.384;2022-12-07T13:44:14;97716.87;;;2.43;73.97
76815;BME280;65768;49.906;19.384;2022-12-07T13:49:31;97726.36;;;2.45;74.50
76815;BME280;65768;49.906;19.384;2022-12-07T13:52:17;97730.80;;;2.37;74.33
76815;BME280;65768;49.906;19.384;2022-12-07T13:54:48;97734.38;;;2.28;74.47
76815;BME280;65768;49.906;19.384;2022-12-07T13:57:17;97734.51;;;2.20;74.93
76815;BME280;65768;49.906;19.384;2022-12-07T13:59:45;97733.66;;;2.14;74.94
76815;BME280;65768;49.906;19.384;2022-12-07T14:02:25;97732.48;;;2.08;75.61
76815;BME280;65768;49.906;19.384;2022-12-07T14:07:58;97744.17;;;1.89;76.40
76815;BME280;65768;49.906;19.384;2022-12-07T14:10:32;97748.27;;;1.81;76.78
76815;BME280;65768;49.906;19.384;2022-12-07T14:15:50;97746.02;;;1.80;77.23
76815;BME280;65768;49.906;19.384;2022-12-07T14:18:38;97751.45;;;1.78;77.80
76815;BME280;65768;49.906;19.384;2022-12-07T14:21:16;97749.83;;;1.81;77.58
76815;BME280;65768;49.906;19.384;2022-12-07T14:26:39;97751.15;;;1.93;77.03
76815;BME280;65768;49.906;19.384;2022-12-07T14:31:56;97739.33;;;1.94;77.29
76815;BME280;65768;49.906;19.384;2022-12-07T14:34:25;97741.23;;;1.94;77.11
76815;BME280;65768;49.906;19.384;2022-12-07T14:36:53;97742.70;;;1.97;76.97
76815;BME280;65768;49.906;19.384;2022-12-07T14:39:21;97739.31;;;1.99;77.04
76815;BME280;65768;49.906;19.384;2022-12-07T14:41:49;97737.71;;;1.98;77.06
76815;BME280;65768;49.906;19.384;2022-12-07T14:44:22;97730.48;;;1.96;77.24
76815;BME280;65768;49.906;19.384;2022-12-07T14:46:51;97732.98;;;1.94;77.41
76815;BME280;65768;49.906;19.384;2022-12-07T14:49:19;97736.79;;;1.95;77.14
76815;BME280;65768;49.906;19.384;2022-12-07T14:51:47;97740.52;;;1.93;77.65
76815;BME280;65768;49.906;19.384;2022-12-07T14:54:20;97744.04;;;1.96;77.09
76815;BME280;65768;49.906;19.384;2022-12-07T14:56:48;97744.30;;;1.99;76.99
76815;BME280;65768;49.906;19.384;2022-12-07T14:59:17;97742.93;;;1.99;76.84
76815;BME280;65768;49.906;19.384;2022-12-07T15:01:46;97740.23;;;2.02;76.80
76815;BME280;65768;49.906;19.384;2022-12-07T15:04:15;97743.65;;;2.01;76.24
76815;BME280;65768;49.906;19.384;2022-12-07T15:06:57;97741.84;;;2.04;76.48
76815;BME280;65768;49.906;19.384;2022-12-07T15:09:26;97745.98;;;2.04;76.10
76815;BME280;65768;49.906;19.384;2022-12-07T15:11:54;97743.45;;;2.07;75.98
76815;BME280;65768;49.906;19.384;2022-12-07T15:14:21;97748.55;;;2.04;76.60
76815;BME280;65768;49.906;19.384;2022-12-07T15:16:49;97743.70;;;2.03;76.36
76815;BME280;65768;49.906;19.384;2022-12-07T15:19:20;97747.02;;;2.05;76.14
76815;BME280;65768;49.906;19.384;2022-12-07T15:21:50;97754.38;;;2.04;76.07
76815;BME280;65768;49.906;19.384;2022-12-07T15:24:19;97746.87;;;2.05;75.99
76815;BME280;65768;49.906;19.384;2022-12-07T15:26:47;97749.41;;;2.04;75.72
76815;BME280;65768;49.906;19.384;2022-12-07T15:29:16;97756.23;;;2.08;75.48
76815;BME280;65768;49.906;19.384;2022-12-07T15:31:45;97755.05;;;2.10;75.02
76815;BME280;65768;49.906;19.384;2022-12-07T15:34:13;97757.05;;;2.07;75.95
76815;BME280;65768;49.906;19.384;2022-12-07T15:36:41;97758.56;;;2.06;75.16
76815;BME280;65768;49.906;19.384;2022-12-07T15:39:10;97764.27;;;2.07;75.29
76815;BME280;65768;49.906;19.384;2022-12-07T15:41:38;97766.73;;;2.03;75.95
76815;BME280;65768;49.906;19.384;2022-12-07T15:44:10;97765.89;;;2.03;75.56
76815;BME280;65768;49.906;19.384;2022-12-07T15:46:56;97769.08;;;2.07;74.86
76815;BME280;65768;49.906;19.384;2022-12-07T15:49:25;97768.61;;;2.09;74.84